createdAt,value
2022-12-25T00:01:21.452Z,5.72
2022-12-25T00:03:48.910Z,5.58
2022-12-25T00:06:15.961Z,5.34
2022-12-25T00:08:43.362Z,5.36
2022-12-25T00:11:16.545Z,5.35
2022-12-25T00:13:44.317Z,5.22
2022-12-25T00:16:16.457Z,5.13
2022-12-25T00:18:43.365Z,5.02
2022-12-25T00:21:10.716Z,4.95
2022-12-25T00:23:37.628Z,4.89
2022-12-25T00:26:12.867Z,4.81
2022-12-25T00:28:40.354Z,4.77
2022-12-25T00:31:09.759Z,4.73
2022-12-25T00:33:38.407Z,4.70
2022-12-25T00:36:07.173Z,4.70
2022-12-25T00:38:35.432Z,4.74
2022-12-25T00:41:10.992Z,4.65
2022-12-25T00:43:38.704Z,4.68
2022-12-25T00:46:07.508Z,4.72
2022-12-25T00:48:37.958Z,4.63
2022-12-25T00:51:07.686Z,4.65
2022-12-25T00:53:35.375Z,4.69
2022-12-25T00:56:07.497Z,4.76
2022-12-25T00:58:35.711Z,4.77
2022-12-25T01:01:04.002Z,4.82
2022-12-25T01:03:32.188Z,4.88
2022-12-25T01:06:04.762Z,4.88
2022-12-25T01:08:36.093Z,4.94
2022-12-25T01:11:07.746Z,4.94
2022-12-25T01:13:38.182Z,4.94
2022-12-25T01:16:10.257Z,4.91
2022-12-25T01:18:38.353Z,4.88
2022-12-25T01:21:13.451Z,4.91
2022-12-25T01:23:40.559Z,4.94
2022-12-25T01:26:08.275Z,5.04
2022-12-25T01:28:37.214Z,5.21
2022-12-25T01:31:05.207Z,5.30
2022-12-25T01:33:32.383Z,5.34
2022-12-25T01:35:59.657Z,5.38
2022-12-25T01:38:27.511Z,5.25
2022-12-25T01:40:55.342Z,5.07
2022-12-25T01:43:27.226Z,5.14
2022-12-25T01:45:54.436Z,5.15
2022-12-25T01:48:30.613Z,5.11
2022-12-25T01:51:06.592Z,5.17
2022-12-25T01:53:35.920Z,5.22
2022-12-25T01:56:07.239Z,5.22
2022-12-25T01:58:35.228Z,5.27
2022-12-25T02:01:05.765Z,5.21
2022-12-25T02:03:33.123Z,5.29
2022-12-25T02:06:01.372Z,5.31
2022-12-25T02:08:29.193Z,5.41
2022-12-25T02:10:56.074Z,5.34
2022-12-25T02:13:23.499Z,5.16
2022-12-25T02:16:06.782Z,5.11
2022-12-25T02:18:37.083Z,5.10
2022-12-25T02:21:16.031Z,5.02
2022-12-25T02:24:04.854Z,4.92
2022-12-25T02:26:51.927Z,4.89
2022-12-25T02:29:29.841Z,4.91
2022-12-25T02:32:13.997Z,4.98
2022-12-25T02:35:07.395Z,4.98
2022-12-25T02:37:50.716Z,4.94
2022-12-25T02:40:41.084Z,4.96
2022-12-25T02:43:47.410Z,4.95
2022-12-25T02:46:36.734Z,4.98
2022-12-25T02:49:25.947Z,5.06
2022-12-25T02:52:17.930Z,5.05
2022-12-25T02:55:11.471Z,5.06
2022-12-25T02:58:02.904Z,5.01
2022-12-25T03:00:52.719Z,5.01
2022-12-25T03:03:41.015Z,4.99
2022-12-25T03:06:27.535Z,5.06
2022-12-25T03:09:17.921Z,5.09
2022-12-25T03:11:46.255Z,5.11
2022-12-25T03:14:31.542Z,5.09
2022-12-25T03:16:59.727Z,5.01
2022-12-25T03:19:48.525Z,5.07
2022-12-25T03:25:37.865Z,4.92
2022-12-25T03:28:06.359Z,4.86
2022-12-25T03:31:10.190Z,4.84
2022-12-25T03:34:14.523Z,4.81
2022-12-25T03:37:32.194Z,4.75
2022-12-25T03:40:31.416Z,4.74
2022-12-25T03:43:46.131Z,4.72
2022-12-25T03:46:34.992Z,4.76
2022-12-25T03:49:32.872Z,4.76
2022-12-25T03:52:21.800Z,4.74
2022-12-25T03:55:10.537Z,4.81
2022-12-25T03:57:55.872Z,4.85
2022-12-25T04:00:41.327Z,4.92
2022-12-25T04:03:26.555Z,4.93
2022-12-25T04:06:12.040Z,4.88
2022-12-25T04:08:57.316Z,4.67
2022-12-25T04:11:42.943Z,4.62
2022-12-25T04:14:28.443Z,4.56
2022-12-25T04:17:13.784Z,4.50
2022-12-25T04:19:59.201Z,4.44
2022-12-25T04:22:44.660Z,4.34
2022-12-25T04:25:29.947Z,4.27
2022-12-25T04:28:20.753Z,4.27
2022-12-25T04:31:06.370Z,4.19
2022-12-25T04:33:52.096Z,4.08
2022-12-25T04:36:19.660Z,4.08
2022-12-25T04:38:46.470Z,4.07
2022-12-25T04:41:13.963Z,3.99
2022-12-25T04:43:40.879Z,4.03
2022-12-25T04:46:07.768Z,4.26
2022-12-25T04:48:37.058Z,4.23
2022-12-25T04:51:12.219Z,4.20
2022-12-25T04:53:39.091Z,4.18
2022-12-25T04:56:06.440Z,4.18
2022-12-25T04:58:33.329Z,4.17
2022-12-25T05:01:01.469Z,4.18
2022-12-25T05:03:29.092Z,4.16
2022-12-25T05:05:56.369Z,4.25
2022-12-25T05:08:23.413Z,4.23
2022-12-25T05:10:50.263Z,4.10
2022-12-25T05:13:17.346Z,4.05
2022-12-25T05:15:44.459Z,3.99
2022-12-25T05:18:11.390Z,3.87
2022-12-25T05:20:40.445Z,3.72
2022-12-25T05:23:09.189Z,3.71
2022-12-25T05:25:39.819Z,3.65
2022-12-25T05:28:07.538Z,3.61
2022-12-25T05:30:35.371Z,3.65
2022-12-25T05:33:03.129Z,3.63
2022-12-25T05:35:30.037Z,3.68
2022-12-25T05:37:57.162Z,3.76
2022-12-25T05:40:24.231Z,3.85
2022-12-25T05:42:51.096Z,3.88
2022-12-25T05:45:18.006Z,3.91
2022-12-25T05:47:44.857Z,3.92
2022-12-25T05:50:11.843Z,3.94
2022-12-25T05:52:38.684Z,3.88
2022-12-25T05:55:06.022Z,3.90
2022-12-25T05:57:33.023Z,3.90
2022-12-25T05:59:59.921Z,3.95
2022-12-25T06:02:26.956Z,4.00
2022-12-25T06:04:53.998Z,4.00
2022-12-25T06:07:20.910Z,4.02
2022-12-25T06:09:47.922Z,3.95
2022-12-25T06:12:14.796Z,3.93
2022-12-25T06:14:41.645Z,3.94
2022-12-25T06:17:08.565Z,3.97
2022-12-25T06:19:35.393Z,3.88
2022-12-25T06:22:02.233Z,3.88
2022-12-25T06:24:29.276Z,3.93
2022-12-25T06:26:56.234Z,3.97
2022-12-25T06:29:23.185Z,4.04
2022-12-25T06:31:50.137Z,4.08
2022-12-25T06:34:17.101Z,4.12
2022-12-25T06:36:44.069Z,4.02
2022-12-25T06:39:11.051Z,3.97
2022-12-25T06:41:38.188Z,4.00
2022-12-25T06:44:05.287Z,4.02
2022-12-25T06:46:32.390Z,4.02
2022-12-25T06:49:00.189Z,3.99
2022-12-25T06:51:31.345Z,3.86
2022-12-25T06:53:59.916Z,3.86
2022-12-25T06:56:28.241Z,3.81
2022-12-25T06:58:57.796Z,3.91
2022-12-25T07:01:28.976Z,3.99
2022-12-25T07:04:02.658Z,4.04
2022-12-25T07:06:30.060Z,4.17
2022-12-25T07:08:56.952Z,4.20
2022-12-25T07:11:24.573Z,4.23
2022-12-25T07:13:51.561Z,4.19
2022-12-25T07:16:19.113Z,4.32
2022-12-25T07:18:46.527Z,4.45
2022-12-25T07:21:18.719Z,4.59
2022-12-25T07:23:47.953Z,4.70
2022-12-25T07:26:15.677Z,4.66
2022-12-25T07:28:43.519Z,4.81
2022-12-25T07:31:13.366Z,4.93
2022-12-25T07:33:40.626Z,4.88
2022-12-25T07:36:08.457Z,5.01
2022-12-25T07:38:41.352Z,5.15
2022-12-25T07:41:12.965Z,5.23
2022-12-25T07:43:40.919Z,5.21
2022-12-25T07:46:08.456Z,5.25
2022-12-25T07:48:36.129Z,5.31
2022-12-25T07:51:06.298Z,5.40
2022-12-25T07:53:33.596Z,5.50
2022-12-25T07:56:20.722Z,5.57
2022-12-25T07:58:49.124Z,5.67
2022-12-25T08:01:20.296Z,5.72
2022-12-25T08:03:53.215Z,5.81
2022-12-25T08:06:21.808Z,5.90
2022-12-25T08:08:49.194Z,5.99
2022-12-25T08:11:16.220Z,6.07
2022-12-25T08:13:43.122Z,6.16
2022-12-25T08:16:11.183Z,6.19
2022-12-25T08:18:39.546Z,6.33
2022-12-25T08:21:10.117Z,6.46
2022-12-25T08:23:39.328Z,6.59
2022-12-25T08:26:08.576Z,6.81
2022-12-25T08:28:36.092Z,7.02
2022-12-25T08:31:07.455Z,7.19
2022-12-25T08:33:34.977Z,7.35
2022-12-25T08:36:03.792Z,7.48
2022-12-25T08:38:30.965Z,7.75
2022-12-25T08:40:58.473Z,7.99
2022-12-25T08:43:25.872Z,8.30
2022-12-25T08:45:52.646Z,8.53
2022-12-25T08:48:19.833Z,8.74
2022-12-25T08:50:48.304Z,8.89
2022-12-25T08:53:15.659Z,9.05
2022-12-25T08:55:43.073Z,9.21
2022-12-25T08:58:10.752Z,9.41
2022-12-25T09:00:38.046Z,9.57
2022-12-25T09:03:05.402Z,9.69
2022-12-25T09:05:35.812Z,9.83
2022-12-25T09:08:02.624Z,9.96
2022-12-25T09:10:30.344Z,9.99
2022-12-25T09:12:57.537Z,10.08
2022-12-25T09:15:24.685Z,10.20
2022-12-25T09:17:51.578Z,10.34
2022-12-25T09:20:19.099Z,10.46
2022-12-25T09:22:45.991Z,10.60
2022-12-25T09:25:13.531Z,10.70
2022-12-25T09:27:40.655Z,10.86
2022-12-25T09:30:08.353Z,10.97
2022-12-25T09:32:35.283Z,11.04
2022-12-25T09:35:03.226Z,11.07
2022-12-25T09:37:30.046Z,11.15
2022-12-25T09:39:57.404Z,11.15
2022-12-25T09:42:34.841Z,11.19
2022-12-25T09:45:12.163Z,11.21
2022-12-25T09:47:42.409Z,11.23
2022-12-25T09:50:23.967Z,11.20
2022-12-25T09:53:04.955Z,11.18
2022-12-25T09:55:37.704Z,11.21
2022-12-25T09:58:13.082Z,11.19
2022-12-25T10:00:46.539Z,11.28
2022-12-25T10:03:50.605Z,11.35
2022-12-25T10:06:35.251Z,11.33
2022-12-25T10:09:31.252Z,11.38
2022-12-25T10:12:27.543Z,11.44
2022-12-25T10:14:54.597Z,11.45
2022-12-25T10:17:21.857Z,11.52
2022-12-25T10:20:08.492Z,11.57
2022-12-25T10:22:41.380Z,11.70
2022-12-25T10:25:20.483Z,11.75
2022-12-25T10:27:52.957Z,11.84
2022-12-25T10:30:23.441Z,11.90
2022-12-25T10:32:51.677Z,11.99
2022-12-25T10:35:21.754Z,12.07
2022-12-25T10:38:14.233Z,12.16
2022-12-25T10:41:23.416Z,12.19
2022-12-25T10:43:53.853Z,12.26
2022-12-25T10:46:22.549Z,12.32
2022-12-25T10:48:51.128Z,12.40
2022-12-25T10:51:37.713Z,12.47
2022-12-25T10:54:24.809Z,12.54
2022-12-25T10:57:00.186Z,12.60
2022-12-25T10:59:29.871Z,12.71
2022-12-25T11:02:04.323Z,12.91
2022-12-25T11:04:36.071Z,13.07
2022-12-25T11:07:19.781Z,13.18
2022-12-25T11:10:02.632Z,13.30
2022-12-25T11:12:36.424Z,13.42
2022-12-25T11:15:31.858Z,13.57
2022-12-25T11:17:58.732Z,13.73
2022-12-25T11:20:26.328Z,13.82
2022-12-25T11:22:53.346Z,14.02
2022-12-25T11:25:26.216Z,14.19
2022-12-25T11:28:02.008Z,14.40
2022-12-25T11:30:31.429Z,14.57
2022-12-25T11:33:06.911Z,14.79
2022-12-25T11:35:54.758Z,14.98
2022-12-25T11:38:21.995Z,15.18
2022-12-25T11:40:55.264Z,15.35
2022-12-25T11:43:24.123Z,15.55
2022-12-25T11:46:06.160Z,15.74
2022-12-25T11:48:45.872Z,15.86
2022-12-25T11:51:15.205Z,16.02
2022-12-25T11:53:51.816Z,16.18
2022-12-25T11:56:23.378Z,16.39
2022-12-25T11:58:53.227Z,16.51
2022-12-25T12:01:58.978Z,16.67
2022-12-25T12:04:38.667Z,16.73
2022-12-25T12:07:27.016Z,16.92
2022-12-25T12:10:19.143Z,17.07
2022-12-25T12:13:01.191Z,17.26
2022-12-25T12:15:35.871Z,17.43
2022-12-25T12:18:32.557Z,17.50
2022-12-25T12:21:06.831Z,17.64
2022-12-25T12:23:55.392Z,17.80
2022-12-25T12:26:26.101Z,17.96
2022-12-25T12:28:59.160Z,18.14
2022-12-25T12:31:39.197Z,18.35
2022-12-25T12:34:14.528Z,18.53
2022-12-25T12:36:41.473Z,18.66
2022-12-25T12:39:24.490Z,18.80
2022-12-25T12:41:51.489Z,18.98
2022-12-25T12:44:20.443Z,19.05
2022-12-25T12:46:56.035Z,19.18
2022-12-25T12:49:25.091Z,19.31
2022-12-25T12:52:21.393Z,19.43
2022-12-25T12:54:59.634Z,19.53
2022-12-25T12:57:29.959Z,19.69
2022-12-25T12:59:59.905Z,19.81
2022-12-25T13:02:30.367Z,19.97
2022-12-25T13:05:07.137Z,20.08
2022-12-25T13:08:01.582Z,20.14
2022-12-25T13:10:33.171Z,20.26
2022-12-25T13:13:03.779Z,20.34
2022-12-25T13:15:34.387Z,20.44
2022-12-25T13:18:08.139Z,20.06
2022-12-25T13:21:16.880Z,20.24
2022-12-25T13:23:43.864Z,20.36
2022-12-25T13:26:18.011Z,20.45
2022-12-25T13:28:47.184Z,20.59
2022-12-25T13:31:14.102Z,20.72
2022-12-25T13:33:45.571Z,20.90
2022-12-25T13:36:14.101Z,20.99
2022-12-25T13:38:49.420Z,21.07
2022-12-25T13:41:40.022Z,21.16
2022-12-25T13:44:32.201Z,21.25
2022-12-25T13:47:15.808Z,21.31
2022-12-25T13:49:43.091Z,21.29
2022-12-25T13:52:20.399Z,21.26
2022-12-25T13:55:16.851Z,21.26
2022-12-25T13:57:59.276Z,21.24
2022-12-25T14:00:36.710Z,21.18
2022-12-25T14:03:05.626Z,21.11
2022-12-25T14:05:42.042Z,21.08
2022-12-25T14:08:26.906Z,21.10
2022-12-25T14:10:56.071Z,21.09
2022-12-25T14:13:27.779Z,21.06
2022-12-25T14:15:56.835Z,20.99
2022-12-25T14:18:25.098Z,20.85
2022-12-25T14:20:57.817Z,20.75
2022-12-25T14:23:25.124Z,20.63
2022-12-25T14:25:52.273Z,20.42
2022-12-25T14:28:34.285Z,20.19
2022-12-25T14:31:02.744Z,20.04
2022-12-25T14:33:37.154Z,19.98
2022-12-25T14:36:04.965Z,19.88
2022-12-25T14:38:35.100Z,19.75
2022-12-25T14:41:22.603Z,19.58
2022-12-25T14:43:56.890Z,19.34
2022-12-25T14:46:26.444Z,19.03
2022-12-25T14:49:21.303Z,18.65
2022-12-25T14:51:48.489Z,18.19
2022-12-25T14:54:23.668Z,17.82
2022-12-25T14:56:52.940Z,17.38
2022-12-25T14:59:24.849Z,17.02
2022-12-25T15:01:56.178Z,16.73
2022-12-25T15:04:25.130Z,16.41
2022-12-25T15:06:59.964Z,16.10
2022-12-25T15:09:30.324Z,15.77
2022-12-25T15:11:57.307Z,15.45
2022-12-25T15:14:25.986Z,15.18
2022-12-25T15:16:55.839Z,14.93
2022-12-25T15:19:29.391Z,14.73
2022-12-25T15:22:02.367Z,14.49
2022-12-25T15:24:29.204Z,14.27
2022-12-25T15:26:56.753Z,14.06
2022-12-25T15:29:59.744Z,13.89
2022-12-25T15:32:16.207Z,13.59
2022-12-25T15:34:46.416Z,13.44
2022-12-25T15:37:14.428Z,13.26
2022-12-25T15:39:41.586Z,13.05
2022-12-25T15:42:17.005Z,12.90
2022-12-25T15:44:45.596Z,12.76
2022-12-25T15:47:14.144Z,12.59
2022-12-25T15:49:42.493Z,12.42
2022-12-25T15:52:13.813Z,12.25
2022-12-25T15:54:41.427Z,12.10
2022-12-25T15:57:18.170Z,11.94
2022-12-25T15:59:45.341Z,11.76
2022-12-25T16:02:18.731Z,11.62
2022-12-25T16:04:46.192Z,11.48
2022-12-25T16:07:18.769Z,11.41
2022-12-25T16:09:46.440Z,11.26
2022-12-25T16:12:13.540Z,11.12
2022-12-25T16:14:41.555Z,10.99
2022-12-25T16:17:14.174Z,10.83
2022-12-25T16:19:45.445Z,10.63
2022-12-25T16:22:19.350Z,10.48
2022-12-25T16:24:47.449Z,10.37
2022-12-25T16:27:14.734Z,10.28
2022-12-25T16:29:42.914Z,10.18
2022-12-25T16:32:14.974Z,10.08
2022-12-25T16:34:43.317Z,9.98
2022-12-25T16:37:10.241Z,9.94
2022-12-25T16:39:37.277Z,9.86
2022-12-25T16:42:04.243Z,9.73
2022-12-25T16:44:31.128Z,9.63
2022-12-25T16:46:58.295Z,9.48
2022-12-25T16:49:25.189Z,9.35
2022-12-25T16:51:53.126Z,9.23
2022-12-25T16:54:20.244Z,9.15
2022-12-25T16:56:47.104Z,9.12
2022-12-25T16:59:14.421Z,9.11
2022-12-25T17:01:43.485Z,9.11
2022-12-25T17:04:12.007Z,9.06
2022-12-25T17:06:39.547Z,9.01
2022-12-25T17:09:07.675Z,8.95
2022-12-25T17:11:34.597Z,8.88
2022-12-25T17:14:04.242Z,8.82
2022-12-25T17:16:34.037Z,8.80
2022-12-25T17:19:04.273Z,8.77
2022-12-25T17:21:35.130Z,8.76
2022-12-25T17:24:03.695Z,8.73
2022-12-25T17:26:32.593Z,8.71
2022-12-25T17:28:59.859Z,8.69
2022-12-25T17:31:26.944Z,8.61
2022-12-25T17:33:54.226Z,8.62
2022-12-25T17:36:22.277Z,8.35
2022-12-25T17:38:49.788Z,8.09
2022-12-25T17:41:18.714Z,7.99
2022-12-25T17:43:47.062Z,7.99
2022-12-25T17:46:22.525Z,8.02
2022-12-25T17:48:50.382Z,7.99
2022-12-25T17:51:21.471Z,7.99
2022-12-25T17:53:53.360Z,8.05
2022-12-25T17:56:21.473Z,8.06
2022-12-25T17:58:53.774Z,8.12
2022-12-25T18:01:22.873Z,8.11
2022-12-25T18:03:50.448Z,7.96
2022-12-25T18:06:20.561Z,7.81
2022-12-25T18:08:48.216Z,7.76
2022-12-25T18:11:18.049Z,7.62
2022-12-25T18:13:48.416Z,7.51
2022-12-25T18:16:16.224Z,7.44
2022-12-25T18:18:51.121Z,7.39
2022-12-25T18:21:19.935Z,7.34
2022-12-25T18:23:47.832Z,7.32
2022-12-25T18:26:15.033Z,7.29
2022-12-25T18:28:42.867Z,7.21
2022-12-25T18:31:11.444Z,7.17
2022-12-25T18:33:38.577Z,7.22
2022-12-25T18:36:06.322Z,7.20
2022-12-25T18:38:33.850Z,7.31
2022-12-25T18:41:04.067Z,7.36
2022-12-25T18:43:51.305Z,7.37
2022-12-25T18:46:22.414Z,7.39
2022-12-25T18:48:50.405Z,7.38
2022-12-25T18:51:17.321Z,7.33
2022-12-25T18:53:45.681Z,7.27
2022-12-25T18:56:16.017Z,7.22
2022-12-25T18:58:43.960Z,7.18
2022-12-25T19:01:16.588Z,6.95
2022-12-25T19:03:44.650Z,6.78
2022-12-25T19:06:38.002Z,6.65
2022-12-25T19:09:11.534Z,6.57
2022-12-25T19:11:46.026Z,6.38
2022-12-25T19:14:13.961Z,6.31
2022-12-25T19:16:42.705Z,6.28
2022-12-25T19:19:09.815Z,6.21
2022-12-25T19:21:37.328Z,6.06
2022-12-25T19:24:06.723Z,6.02
2022-12-25T19:26:33.973Z,6.11
2022-12-25T19:29:01.043Z,6.14
2022-12-25T19:31:27.781Z,6.13
2022-12-25T19:33:54.689Z,6.12
2022-12-25T19:36:21.874Z,6.07
2022-12-25T19:38:48.706Z,6.05
2022-12-25T19:41:18.622Z,6.00
2022-12-25T19:43:50.068Z,5.89
2022-12-25T19:46:21.161Z,5.84
2022-12-25T19:48:48.928Z,5.80
2022-12-25T19:51:18.966Z,5.77
2022-12-25T19:53:46.577Z,5.65
2022-12-25T19:56:14.421Z,5.75
2022-12-25T19:58:41.432Z,5.90
2022-12-25T20:01:12.970Z,5.97
2022-12-25T20:03:46.224Z,5.99
2022-12-25T20:06:22.116Z,6.07
2022-12-25T20:08:52.819Z,6.18
2022-12-25T20:11:21.261Z,6.15
2022-12-25T20:13:48.645Z,6.13
2022-12-25T20:16:15.871Z,6.04
2022-12-25T20:18:42.786Z,5.94
2022-12-25T20:21:19.336Z,5.96
2022-12-25T20:23:48.708Z,5.94
2022-12-25T20:26:17.634Z,5.86
2022-12-25T20:28:46.135Z,5.82
2022-12-25T20:31:18.442Z,5.74
2022-12-25T20:33:45.394Z,5.66
2022-12-25T20:36:13.002Z,5.61
2022-12-25T20:38:40.751Z,5.50
2022-12-25T20:41:30.112Z,5.48
2022-12-25T20:43:57.753Z,5.34
2022-12-25T20:46:26.084Z,5.25
2022-12-25T20:48:53.828Z,5.21
2022-12-25T20:51:23.243Z,5.14
2022-12-25T20:53:50.605Z,5.05
2022-12-25T20:56:19.191Z,5.00
2022-12-25T20:58:46.162Z,4.92
2022-12-25T21:01:16.296Z,4.93
2022-12-25T21:03:45.704Z,4.86
2022-12-25T21:06:13.384Z,4.89
2022-12-25T21:08:41.219Z,4.87
2022-12-25T21:11:09.276Z,4.82
2022-12-25T21:13:43.262Z,4.83
2022-12-25T21:16:15.997Z,4.81
2022-12-25T21:18:43.087Z,4.81
2022-12-25T21:21:10.729Z,4.84
2022-12-25T21:23:40.104Z,4.87
2022-12-25T21:26:18.489Z,4.86
2022-12-25T21:28:50.024Z,4.95
2022-12-25T21:31:18.020Z,4.99
2022-12-25T21:33:57.778Z,4.96
2022-12-25T21:36:27.509Z,5.03
2022-12-25T21:38:55.477Z,5.05
2022-12-25T21:41:24.449Z,5.06
2022-12-25T21:43:51.420Z,4.99
2022-12-25T21:46:19.080Z,4.95
2022-12-25T21:48:46.430Z,4.95
2022-12-25T21:51:31.915Z,4.95
2022-12-25T21:53:59.565Z,4.87
2022-12-25T21:56:29.266Z,4.79
2022-12-25T21:58:56.158Z,4.88
2022-12-25T22:01:23.158Z,4.92
2022-12-25T22:03:50.196Z,4.93
2022-12-25T22:06:35.795Z,4.94
2022-12-25T22:09:05.988Z,4.93
2022-12-25T22:11:52.052Z,4.92
2022-12-25T22:14:51.764Z,4.86
2022-12-25T22:17:48.611Z,4.89
2022-12-25T22:20:24.184Z,4.86
2022-12-25T22:22:54.027Z,4.85
2022-12-25T22:25:21.749Z,4.84
2022-12-25T22:27:49.589Z,4.84
2022-12-25T22:30:19.891Z,4.85
2022-12-25T22:32:47.433Z,4.84
2022-12-25T22:35:16.785Z,4.85
2022-12-25T22:37:44.523Z,4.80
2022-12-25T22:40:14.976Z,4.83
2022-12-25T22:42:42.519Z,4.83
2022-12-25T22:45:10.592Z,4.87
2022-12-25T22:47:37.957Z,4.89
2022-12-25T22:50:05.816Z,4.89
2022-12-25T22:52:33.539Z,4.89
2022-12-25T22:55:00.518Z,4.87
2022-12-25T22:57:27.499Z,4.83
2022-12-25T22:59:54.461Z,4.80
2022-12-25T23:02:21.700Z,4.72
2022-12-25T23:04:48.794Z,4.68
2022-12-25T23:07:15.788Z,4.67
2022-12-25T23:09:44.163Z,4.64
2022-12-25T23:12:31.954Z,4.61
2022-12-25T23:14:58.882Z,4.58
2022-12-25T23:17:44.587Z,4.57
2022-12-25T23:20:33.307Z,4.53
2022-12-25T23:23:19.206Z,4.47
2022-12-25T23:26:04.931Z,4.42
2022-12-25T23:28:54.467Z,4.39
2022-12-25T23:31:29.820Z,4.36
2022-12-25T23:33:57.477Z,4.34
2022-12-25T23:36:24.462Z,4.32
2022-12-25T23:38:51.362Z,4.12
2022-12-25T23:41:18.257Z,3.93
2022-12-25T23:43:45.251Z,3.90
2022-12-25T23:46:12.232Z,3.91
2022-12-25T23:48:42.485Z,3.86
2022-12-25T23:51:09.433Z,3.87
2022-12-25T23:53:38.161Z,3.80
2022-12-25T23:56:05.760Z,3.76
2022-12-25T23:58:33.612Z,3.71
